Time;durP1;ratioP1;P1;durP2;ratioP2;P2;SDS_P1;SDS_P2;PMS_P1;PMS_P2;Temp;Humidity;BMP_temperature;BMP_pressure;BME280_temperature;BME280_humidity;BME280_pressure;Samples;Min_cycle;Max_cycle;Signal;HPM_P1;HPM_P2
2021/09/01 00:00:08;;;;;;;10.95;2.10;;;16.30;95.90;;;;;;4952782;28;20228;-70
2021/09/01 00:02:34;;;;;;;22.83;3.50;;;16.30;95.90;;;;;;4953936;28;20050;-69
2021/09/01 00:04:59;;;;;;;8.70;1.92;;;16.30;95.90;;;;;;4953243;28;20024;-69
2021/09/01 00:07:25;;;;;;;11.30;2.22;;;16.30;95.90;;;;;;4952502;29;20045;-69
2021/09/01 00:09:51;;;;;;;11.60;2.70;;;16.30;95.90;;;;;;4953210;29;20027;-69
2021/09/01 00:12:17;;;;;;;8.80;2.30;;;16.30;95.90;;;;;;4951644;29;20470;-70
2021/09/01 00:14:42;;;;;;;9.45;2.13;;;16.30;96.00;;;;;;4954044;28;20118;-69
2021/09/01 00:17:11;;;;;;;15.23;2.75;;;16.30;96.00;;;;;;4953310;29;20481;-68
2021/09/01 00:19:36;;;;;;;12.68;2.90;;;16.30;96.00;;;;;;4953554;29;20553;-69
2021/09/01 00:22:02;;;;;;;8.65;2.08;;;16.20;96.20;;;;;;4951681;28;20122;-70
2021/09/01 00:24:37;;;;;;;15.60;2.45;;;16.20;96.00;;;;;;4954266;28;20078;-69
2021/09/01 00:27:06;;;;;;;17.13;3.75;;;16.20;96.00;;;;;;4954537;28;20052;-70
2021/09/01 00:29:32;;;;;;;10.55;2.40;;;16.20;96.00;;;;;;4950974;29;20031;-70
2021/09/01 00:31:57;;;;;;;15.48;2.95;;;16.20;96.00;;;;;;4951448;28;20430;-71
2021/09/01 00:34:23;;;;;;;12.95;2.50;;;16.30;95.90;;;;;;4954314;28;20122;-70
2021/09/01 00:36:48;;;;;;;13.88;2.22;;;16.20;95.90;;;;;;4952719;29;20042;-71
2021/09/01 00:39:14;;;;;;;12.23;2.40;;;16.20;95.90;;;;;;4974799;28;20036;-70
2021/09/01 00:41:39;;;;;;;10.07;2.33;;;16.20;96.00;;;;;;4952392;29;20062;-71
2021/09/01 00:44:23;;;;;;;8.55;2.53;;;16.20;95.90;;;;;;4947932;28;20038;-70
2021/09/01 00:46:49;;;;;;;11.50;2.05;;;16.30;95.90;;;;;;4951165;29;20027;-70
2021/09/01 00:49:15;;;;;;;14.32;2.33;;;16.20;96.00;;;;;;4953930;28;20259;-70
2021/09/01 00:51:43;;;;;;;6.28;2.25;;;16.20;96.00;;;;;;4952578;28;20042;-70
2021/09/01 00:54:10;;;;;;;14.68;2.33;;;16.20;96.00;;;;;;4952897;28;20027;-70
2021/09/01 00:56:36;;;;;;;11.55;2.47;;;16.10;96.00;;;;;;4953349;28;20348;-70
2021/09/01 00:59:02;;;;;;;13.00;2.20;;;16.20;96.00;;;;;;4951384;28;20430;-70
2021/09/01 01:01:27;;;;;;;15.18;2.42;;;16.20;96.00;;;;;;4951167;28;20107;-70
2021/09/01 01:03:55;;;;;;;8.50;2.05;;;16.10;96.00;;;;;;4953587;28;20039;-70
2021/09/01 01:06:23;;;;;;;11.35;1.60;;;16.10;96.10;;;;;;4951810;28;20192;-70
2021/09/01 01:08:49;;;;;;;11.73;2.10;;;16.10;96.00;;;;;;4951287;28;20393;-70
2021/09/01 01:11:15;;;;;;;9.88;1.90;;;16.20;96.00;;;;;;4951177;28;20524;-70
2021/09/01 01:13:51;;;;;;;12.23;2.78;;;16.10;96.00;;;;;;4953843;28;20039;-70
2021/09/01 01:16:24;;;;;;;10.43;2.03;;;16.20;96.00;;;;;;4952965;28;20093;-71
2021/09/01 01:18:51;;;;;;;9.80;2.42;;;16.10;95.90;;;;;;4952588;29;20041;-70
2021/09/01 01:21:21;;;;;;;12.35;2.20;;;16.10;95.90;;;;;;4950151;29;20031;-70
2021/09/01 01:23:59;;;;;;;11.90;3.05;;;16.10;95.90;;;;;;4951545;28;20027;-70
2021/09/01 01:26:31;;;;;;;11.25;2.28;;;16.10;95.90;;;;;;4951455;29;20067;-71
2021/09/01 01:29:03;;;;;;;11.93;2.33;;;16.10;95.80;;;;;;4949244;29;20024;-70
2021/09/01 01:31:28;;;;;;;9.93;2.60;;;16.10;95.80;;;;;;4950732;28;20042;-71
2021/09/01 01:33:55;;;;;;;9.18;1.95;;;16.10;95.90;;;;;;4950896;28;20405;-70
2021/09/01 01:36:22;;;;;;;11.02;2.00;;;16.10;95.80;;;;;;4952654;28;20035;-70
2021/09/01 01:38:47;;;;;;;10.40;2.10;;;16.10;95.80;;;;;;4949964;28;20467;-70
2021/09/01 01:41:13;;;;;;;11.70;2.00;;;16.10;95.80;;;;;;4952331;28;20105;-70
2021/09/01 01:43:38;;;;;;;15.50;2.38;;;16.10;95.80;;;;;;4951142;28;20031;-70
2021/09/01 01:46:05;;;;;;;8.75;1.77;;;16.10;95.80;;;;;;4953262;29;20054;-71
2021/09/01 01:48:32;;;;;;;12.23;2.13;;;16.10;95.80;;;;;;4949691;29;20456;-71
2021/09/01 01:50:58;;;;;;;11.88;2.33;;;16.10;95.80;;;;;;4946982;28;20396;-70
2021/09/01 01:53:23;;;;;;;14.15;2.25;;;16.10;95.80;;;;;;4949651;29;20015;-70
2021/09/01 01:55:49;;;;;;;7.35;2.05;;;16.00;95.70;;;;;;4949111;28;20062;-70
2021/09/01 01:58:14;;;;;;;13.68;2.42;;;16.00;95.80;;;;;;4950030;29;20102;-70
2021/09/01 02:00:40;;;;;;;9.57;2.08;;;16.00;95.80;;;;;;4948868;28;20074;-70
2021/09/01 02:03:06;;;;;;;11.60;2.67;;;16.00;95.90;;;;;;4952141;28;20046;-70
2021/09/01 02:05:31;;;;;;;11.15;3.00;;;16.00;96.00;;;;;;4953047;28;20039;-70
2021/09/01 02:07:57;;;;;;;10.60;1.90;;;16.00;96.00;;;;;;4952560;29;20094;-70
2021/09/01 02:10:23;;;;;;;9.60;2.15;;;16.00;95.90;;;;;;4952452;28;20397;-70
2021/09/01 02:12:48;;;;;;;12.23;2.60;;;16.00;96.00;;;;;;4951468;28;20023;-70
2021/09/01 02:15:15;;;;;;;9.25;2.30;;;16.00;95.90;;;;;;4953237;28;20031;-70
2021/09/01 02:17:41;;;;;;;14.05;3.28;;;15.90;95.90;;;;;;4947159;29;20086;-71
2021/09/01 02:20:10;;;;;;;14.48;2.35;;;16.00;95.80;;;;;;4950314;28;20023;-71
2021/09/01 02:22:36;;;;;;;10.70;2.22;;;16.00;95.90;;;;;;4951618;28;20050;-70
2021/09/01 02:25:04;;;;;;;14.35;2.42;;;15.90;95.80;;;;;;4952171;28;20027;-70
2021/09/01 02:27:29;;;;;;;11.52;2.50;;;16.00;95.80;;;;;;4950932;28;20378;-71
2021/09/01 02:29:55;;;;;;;15.20;3.10;;;15.90;95.70;;;;;;4953849;28;20034;-71
2021/09/01 02:32:20;;;;;;;12.88;2.60;;;15.90;95.60;;;;;;4954015;29;20040;-71
2021/09/01 02:34:46;;;;;;;11.48;2.72;;;15.90;95.50;;;;;;4955073;28;20043;-71
2021/09/01 02:37:11;;;;;;;8.05;2.00;;;15.90;95.30;;;;;;4954727;29;20121;-70
2021/09/01 02:39:37;;;;;;;10.77;2.42;;;15.90;95.30;;;;;;4953884;28;20062;-70
2021/09/01 02:42:02;;;;;;;12.55;2.15;;;15.90;95.30;;;;;;4955624;28;20057;-70
2021/09/01 02:44:29;;;;;;;8.07;2.00;;;15.90;95.40;;;;;;4954832;28;20086;-70
2021/09/01 02:46:55;;;;;;;12.13;2.75;;;15.90;95.40;;;;;;4953992;28;20035;-70
2021/09/01 02:49:20;;;;;;;10.60;2.22;;;15.90;95.40;;;;;;4955146;29;20027;-70
2021/09/01 02:51:46;;;;;;;10.95;2.20;;;15.90;95.40;;;;;;4956245;28;20074;-70
2021/09/01 02:54:11;;;;;;;9.52;2.63;;;15.90;95.50;;;;;;4953658;29;20027;-70
2021/09/01 02:56:37;;;;;;;10.07;2.00;;;15.90;95.50;;;;;;4952713;28;20031;-70
2021/09/01 02:59:02;;;;;;;13.55;2.50;;;15.90;95.50;;;;;;4954415;28;20027;-70
2021/09/01 03:01:28;;;;;;;11.60;2.47;;;15.90;95.50;;;;;;4954045;28;20030;-70
2021/09/01 03:03:53;;;;;;;10.80;2.35;;;15.90;95.50;;;;;;4954256;29;20061;-70
2021/09/01 03:06:19;;;;;;;12.00;2.33;;;15.90;95.40;;;;;;4954697;29;20046;-71
2021/09/01 03:08:45;;;;;;;11.50;2.63;;;15.90;95.30;;;;;;4954543;29;20106;-70
2021/09/01 03:11:10;;;;;;;17.48;2.75;;;15.90;95.30;;;;;;4955487;29;20027;-70
2021/09/01 03:13:36;;;;;;;12.95;2.72;;;15.90;95.20;;;;;;4953146;28;20031;-70
2021/09/01 03:16:01;;;;;;;8.48;2.88;;;15.90;95.00;;;;;;4953668;28;20028;-70
2021/09/01 03:18:27;;;;;;;7.65;2.30;;;15.80;94.90;;;;;;4954641;28;20115;-70
2021/09/01 03:20:53;;;;;;;15.68;2.97;;;15.80;94.80;;;;;;4954880;28;20039;-70
2021/09/01 03:23:18;;;;;;;13.82;2.60;;;15.80;94.70;;;;;;4954291;29;20457;-70
2021/09/01 03:25:44;;;;;;;11.52;2.15;;;15.90;94.90;;;;;;4954807;28;20042;-70
2021/09/01 03:28:10;;;;;;;13.63;2.75;;;15.80;94.50;;;;;;4951171;28;20038;-70
2021/09/01 03:30:35;;;;;;;9.15;2.20;;;15.80;94.60;;;;;;4951323;28;20031;-70
2021/09/01 03:33:01;;;;;;;11.15;2.80;;;15.90;94.60;;;;;;4952454;28;20046;-70
2021/09/01 03:35:27;;;;;;;7.55;1.90;;;15.90;94.50;;;;;;4953406;28;20031;-70
2021/09/01 03:37:52;;;;;;;11.30;1.80;;;15.80;94.40;;;;;;4955938;28;20034;-70
2021/09/01 03:40:18;;;;;;;7.25;2.08;;;15.90;94.50;;;;;;4949732;28;20027;-70
2021/09/01 03:42:44;;;;;;;10.25;1.63;;;15.80;94.40;;;;;;4953376;28;20027;-70
2021/09/01 03:45:10;;;;;;;8.40;1.88;;;15.80;94.40;;;;;;4957054;28;20022;-70
2021/09/01 03:47:36;;;;;;;6.60;1.98;;;15.80;94.40;;;;;;4952433;29;20031;-70
2021/09/01 03:50:04;;;;;;;9.57;2.47;;;15.80;94.80;;;;;;4953984;28;20090;-71
2021/09/01 03:52:30;;;;;;;9.75;2.60;;;15.80;94.70;;;;;;4952051;28;20118;-70
2021/09/01 03:54:56;;;;;;;9.38;2.95;;;15.90;94.70;;;;;;4953846;29;20107;-70
2021/09/01 03:57:21;;;;;;;14.30;2.45;;;15.80;94.70;;;;;;4948434;28;20055;-70
2021/09/01 03:59:47;;;;;;;8.80;1.85;;;15.80;94.70;;;;;;4952006;28;20035;-70
2021/09/01 04:02:12;;;;;;;12.48;3.05;;;15.80;94.80;;;;;;4949967;29;20122;-71
2021/09/01 04:04:38;;;;;;;10.38;2.88;;;15.80;94.80;;;;;;4947944;29;20492;-71
2021/09/01 04:07:04;;;;;;;10.00;2.53;;;15.80;94.80;;;;;;4953941;28;20082;-70
2021/09/01 04:09:29;;;;;;;12.27;2.60;;;15.80;94.90;;;;;;4947450;28;20030;-70
2021/09/01 04:11:55;;;;;;;7.55;2.40;;;15.80;95.10;;;;;;4954542;28;20050;-70
2021/09/01 04:14:21;;;;;;;10.50;2.40;;;15.80;95.20;;;;;;4950094;28;20027;-70
2021/09/01 04:16:46;;;;;;;13.57;2.58;;;15.80;95.30;;;;;;4970258;28;20553;-70
2021/09/01 04:19:12;;;;;;;12.68;3.00;;;15.80;95.30;;;;;;4950134;29;20039;-70
2021/09/01 04:21:38;;;;;;;8.95;2.58;;;15.80;95.40;;;;;;4952588;28;20371;-70
2021/09/01 04:24:03;;;;;;;7.03;2.47;;;15.70;95.50;;;;;;4951822;28;20027;-70
2021/09/01 04:26:29;;;;;;;11.23;2.20;;;15.70;95.60;;;;;;4949555;29;20532;-70
2021/09/01 04:28:55;;;;;;;9.13;2.75;;;15.70;95.60;;;;;;4946618;28;20055;-70
2021/09/01 04:31:20;;;;;;;10.40;2.78;;;15.60;95.60;;;;;;4946299;29;20035;-70
2021/09/01 04:33:46;;;;;;;9.73;2.65;;;15.60;95.70;;;;;;4945023;29;20378;-70
2021/09/01 04:36:12;;;;;;;12.98;3.17;;;15.60;95.90;;;;;;4943976;29;20024;-70
2021/09/01 04:38:37;;;;;;;9.35;2.20;;;15.60;96.00;;;;;;4951559;28;20042;-70
2021/09/01 04:41:03;;;;;;;10.32;2.95;;;15.50;96.20;;;;;;4954206;28;20049;-70
2021/09/01 04:43:29;;;;;;;11.27;2.63;;;15.50;96.30;;;;;;4951470;28;20032;-70
2021/09/01 04:45:54;;;;;;;10.10;1.92;;;15.50;96.50;;;;;;4951810;29;20111;-70
2021/09/01 04:48:20;;;;;;;13.27;3.13;;;15.50;96.60;;;;;;4946179;28;20031;-70
2021/09/01 04:50:46;;;;;;;10.23;3.15;;;15.50;96.60;;;;;;4947264;29;20093;-70
2021/09/01 04:53:11;;;;;;;7.75;2.30;;;15.40;96.70;;;;;;4954263;28;20030;-70
2021/09/01 04:55:37;;;;;;;15.80;3.17;;;15.40;96.80;;;;;;4948664;29;20040;-68
2021/09/01 04:58:03;;;;;;;12.63;3.38;;;15.40;96.90;;;;;;4951970;28;20035;-70
2021/09/01 05:00:28;;;;;;;14.15;2.72;;;15.40;96.90;;;;;;4953683;28;20026;-70
2021/09/01 05:02:54;;;;;;;10.18;2.42;;;15.40;96.90;;;;;;4952232;28;20038;-70
2021/09/01 05:05:19;;;;;;;11.65;3.17;;;15.40;96.90;;;;;;4953206;28;20023;-70
2021/09/01 05:07:45;;;;;;;9.55;2.72;;;15.40;96.90;;;;;;4953537;29;20050;-70
2021/09/01 05:10:11;;;;;;;8.80;2.40;;;15.40;97.00;;;;;;4953954;29;20051;-70
2021/09/01 05:12:37;;;;;;;14.75;3.35;;;15.40;97.00;;;;;;4943778;28;20039;-70
2021/09/01 05:15:03;;;;;;;9.90;2.30;;;15.40;97.00;;;;;;4946832;29;20027;-70
2021/09/01 05:17:32;;;;;;;11.77;2.95;;;15.40;97.10;;;;;;4948675;28;20067;-70
2021/09/01 05:19:57;;;;;;;12.15;2.83;;;15.40;97.10;;;;;;4940119;28;20032;-68
2021/09/01 05:22:39;;;;;;;9.82;2.72;;;15.40;97.20;;;;;;4942442;29;20552;-69
2021/09/01 05:25:11;;;;;;;11.48;3.50;;;15.50;97.20;;;;;;4951364;28;20027;-70
2021/09/01 05:27:39;;;;;;;11.13;2.92;;;15.40;97.40;;;;;;4942845;29;20027;-70
2021/09/01 05:30:07;;;;;;;9.57;2.65;;;15.50;97.20;;;;;;4947827;28;20051;-70
2021/09/01 05:32:36;;;;;;;14.00;3.22;;;15.50;97.20;;;;;;4943651;28;20039;-70
2021/09/01 05:35:02;;;;;;;11.10;3.30;;;15.50;97.30;;;;;;4967793;23;20054;-86
2021/09/01 05:37:29;;;;;;;9.45;2.80;;;15.50;97.50;;;;;;4970605;28;20063;-86
2021/09/01 05:39:57;;;;;;;11.63;2.40;;;15.50;97.50;;;;;;4963461;28;20031;-87
2021/09/01 05:42:26;;;;;;;10.57;3.17;;;15.50;97.70;;;;;;4965365;28;20480;-86
2021/09/01 05:44:52;;;;;;;7.47;2.42;;;15.50;98.00;;;;;;4968276;28;20030;-86
2021/09/01 05:47:20;;;;;;;10.50;2.90;;;15.50;97.70;;;;;;4965805;28;20076;-86
2021/09/01 05:49:48;;;;;;;11.95;2.75;;;15.50;97.80;;;;;;4984783;28;20069;-85
2021/09/01 05:52:24;;;;;;;7.80;2.47;;;15.60;97.90;;;;;;4966725;28;20117;-86
2021/09/01 05:54:55;;;;;;;10.18;2.78;;;15.50;97.90;;;;;;4971104;28;20026;-90
2021/09/01 05:57:44;;;;;;;11.30;2.83;;;15.60;97.90;;;;;;4965448;28;20122;-85
2021/09/01 06:00:15;;;;;;;7.30;2.58;;;15.60;97.90;;;;;;4967568;28;20484;-86
2021/09/01 06:02:52;;;;;;;11.93;3.72;;;15.60;98.00;;;;;;4963524;28;20487;-85
2021/09/01 06:05:19;;;;;;;11.57;3.00;;;15.60;98.00;;;;;;4968894;28;20019;-85
2021/09/01 06:08:06;;;;;;;8.65;2.72;;;15.60;98.10;;;;;;4967869;28;20085;-85
2021/09/01 06:10:34;;;;;;;11.02;3.10;;;15.70;98.10;;;;;;4976721;28;20069;-86
2021/09/01 06:13:05;;;;;;;9.70;2.63;;;15.70;98.20;;;;;;4973968;28;20034;-85
2021/09/01 06:15:31;;;;;;;10.38;3.53;;;15.70;98.10;;;;;;4975355;28;20063;-85
2021/09/01 06:17:58;;;;;;;8.27;2.97;;;15.80;98.20;;;;;;4973697;28;20030;-85
2021/09/01 06:20:24;;;;;;;9.02;2.60;;;15.80;98.20;;;;;;4963119;28;20034;-86
2021/09/01 06:22:49;;;;;;;8.45;2.72;;;15.80;98.20;;;;;;4973164;28;20487;-84
2021/09/01 06:25:15;;;;;;;11.02;2.90;;;15.90;98.20;;;;;;4972831;28;20502;-86
2021/09/01 06:27:41;;;;;;;11.52;2.90;;;15.90;98.20;;;;;;4973780;28;20038;-86
2021/09/01 06:30:07;;;;;;;11.95;2.40;;;16.00;98.20;;;;;;4971165;28;20110;-86
2021/09/01 06:32:33;;;;;;;11.30;3.05;;;16.00;98.20;;;;;;4973963;28;20041;-85
2021/09/01 06:34:59;;;;;;;12.77;3.42;;;16.10;98.20;;;;;;4976380;28;20050;-85
2021/09/01 06:37:24;;;;;;;8.50;2.88;;;16.10;98.20;;;;;;4973964;28;20048;-85
2021/09/01 06:39:51;;;;;;;9.85;2.40;;;16.20;98.20;;;;;;4971652;28;20023;-85
2021/09/01 06:42:18;;;;;;;13.00;2.42;;;16.20;98.30;;;;;;4973298;28;20022;-84
2021/09/01 06:44:44;;;;;;;11.02;3.53;;;16.30;98.20;;;;;;4974471;28;20037;-84
2021/09/01 06:47:10;;;;;;;6.15;2.28;;;16.40;98.20;;;;;;4974926;28;20402;-84
2021/09/01 06:49:35;;;;;;;14.05;2.55;;;16.40;97.90;;;;;;4974157;28;20089;-85
2021/09/01 06:52:01;;;;;;;8.50;2.40;;;16.40;97.90;;;;;;4960044;28;20078;-85
2021/09/01 06:54:26;;;;;;;11.50;3.28;;;16.50;97.90;;;;;;4965186;28;20121;-85
2021/09/01 06:56:58;;;;;;;8.15;2.40;;;16.50;97.80;;;;;;4986802;28;20069;-85
2021/09/01 06:59:30;;;;;;;10.50;2.30;;;16.60;97.90;;;;;;4976034;28;20027;-86
2021/09/01 07:01:56;;;;;;;9.55;2.65;;;16.70;97.90;;;;;;4969252;28;20038;-85
2021/09/01 07:04:24;;;;;;;10.23;3.90;;;16.70;97.80;;;;;;4971257;28;20031;-87
2021/09/01 07:06:50;;;;;;;13.90;3.92;;;16.70;97.40;;;;;;4967939;28;20502;-85
2021/09/01 07:09:15;;;;;;;11.88;4.28;;;16.80;97.20;;;;;;4973379;28;20053;-84
2021/09/01 07:11:41;;;;;;;12.32;3.30;;;16.90;97.00;;;;;;4975145;28;20648;-84
2021/09/01 07:14:07;;;;;;;10.90;3.88;;;16.90;96.80;;;;;;4971410;28;20027;-84
2021/09/01 07:16:34;;;;;;;8.82;4.05;;;17.00;96.80;;;;;;4969624;28;20019;-85
2021/09/01 07:18:59;;;;;;;13.57;3.85;;;17.00;96.60;;;;;;4971531;28;20045;-85
2021/09/01 07:21:25;;;;;;;12.40;4.50;;;17.10;96.30;;;;;;4975427;28;20122;-85
2021/09/01 07:23:51;;;;;;;11.73;4.43;;;17.10;96.10;;;;;;4970728;28;20117;-85
2021/09/01 07:26:16;;;;;;;12.15;3.97;;;17.20;96.10;;;;;;4972529;28;20162;-85
2021/09/01 07:28:42;;;;;;;14.82;5.15;;;17.30;95.90;;;;;;4973860;28;20047;-85
2021/09/01 07:31:09;;;;;;;13.73;4.50;;;17.30;95.50;;;;;;4971596;28;20034;-84
2021/09/01 07:33:38;;;;;;;13.07;4.75;;;17.40;95.40;;;;;;4966519;28;20038;-86
2021/09/01 07:36:03;;;;;;;13.43;4.28;;;17.40;95.20;;;;;;4970869;28;20031;-85
2021/09/01 07:38:29;;;;;;;17.98;5.55;;;17.40;94.90;;;;;;4974919;28;20515;-85
2021/09/01 07:40:54;;;;;;;13.18;4.38;;;17.50;94.70;;;;;;4971327;28;20035;-86
2021/09/01 07:43:20;;;;;;;14.00;5.15;;;17.50;94.60;;;;;;4972354;28;20031;-86
2021/09/01 07:45:46;;;;;;;17.40;6.10;;;17.50;94.50;;;;;;4974331;28;20092;-86
2021/09/01 07:48:14;;;;;;;13.70;5.78;;;17.70;94.40;;;;;;4989102;28;20106;-96
2021/09/01 07:50:41;;;;;;;14.90;5.03;;;17.70;94.20;;;;;;4999310;28;20029;-95
2021/09/01 07:53:06;;;;;;;13.05;4.68;;;17.70;94.00;;;;;;4996626;28;20094;-96
2021/09/01 07:55:32;;;;;;;17.13;5.65;;;17.80;93.80;;;;;;4991780;28;20031;-96
2021/09/01 07:57:57;;;;;;;12.38;4.07;;;17.70;93.60;;;;;;4997539;28;20027;-96
2021/09/01 08:00:23;;;;;;;12.15;4.13;;;17.80;93.60;;;;;;4994407;28;20035;-95
2021/09/01 08:02:51;;;;;;;10.82;3.47;;;17.80;93.60;;;;;;5002987;28;20073;-95
2021/09/01 08:05:17;;;;;;;8.20;3.67;;;17.90;93.40;;;;;;5000613;28;20007;-95
2021/09/01 08:07:42;;;;;;;9.00;4.10;;;18.00;93.40;;;;;;4999788;28;20030;-96
2021/09/01 08:10:08;;;;;;;12.25;3.47;;;18.00;93.10;;;;;;4999150;28;20242;-95
2021/09/01 08:12:37;;;;;;;9.82;3.15;;;18.00;93.30;;;;;;5000172;28;20023;-96
2021/09/01 08:15:04;;;;;;;9.27;3.13;;;18.00;92.90;;;;;;4977623;28;20047;-96
2021/09/01 08:17:29;;;;;;;8.93;3.60;;;18.00;92.70;;;;;;4994634;28;20011;-96
2021/09/01 08:19:55;;;;;;;14.05;2.50;;;18.00;92.90;;;;;;4995533;28;20034;-96
2021/09/01 08:22:24;;;;;;;8.00;2.85;;;18.00;92.60;;;;;;4983371;28;20388;-96
2021/09/01 08:24:49;;;;;;;9.63;2.40;;;18.10;92.50;;;;;;4996134;28;20026;-96
2021/09/01 08:27:15;;;;;;;11.82;3.20;;;18.10;92.80;;;;;;4999293;28;20015;-96
2021/09/01 08:30:31;;;;;;;11.90;3.25;;;18.20;92.50;;;;;;5000218;28;20022;-91
2021/09/01 08:33:16;;;;;;;7.65;2.45;;;18.30;92.60;;;;;;4996555;28;20098;-96
2021/09/01 08:40:15;;;;;;;10.38;2.42;;;18.30;92.00;;;;;;5000529;28;20060;-96
2021/09/01 08:43:48;;;;;;;8.27;2.33;;;18.50;92.20;;;;;;4999338;28;20132;-96
2021/09/01 08:47:02;;;;;;;9.10;2.45;;;18.70;91.70;;;;;;4993595;28;20031;-96
2021/09/01 08:49:39;;;;;;;5.63;2.05;;;19.10;91.10;;;;;;4994416;28;20110;-96
2021/09/01 08:52:32;;;;;;;6.50;1.33;;;19.10;90.30;;;;;;4999395;28;20538;-96
2021/09/01 08:55:07;;;;;;;7.45;1.75;;;19.20;90.00;;;;;;4988311;28;20102;-96
2021/09/01 08:57:55;;;;;;;8.25;1.58;;;19.30;89.00;;;;;;4981320;28;20007;-96
2021/09/01 09:00:21;;;;;;;8.25;1.42;;;19.40;88.70;;;;;;4982341;23;20517;-70
2021/09/01 09:02:55;;;;;;;8.07;1.90;;;19.40;88.70;;;;;;4964619;28;20030;-70
2021/09/01 09:05:39;;;;;;;7.95;1.50;;;19.50;87.30;;;;;;4968488;28;20099;-70
2021/09/01 09:08:08;;;;;;;8.45;1.80;;;19.60;86.70;;;;;;4968084;28;20045;-70
2021/09/01 09:10:38;;;;;;;5.18;1.20;;;19.70;86.50;;;;;;4944429;28;20027;-70
2021/09/01 09:13:12;;;;;;;10.38;1.80;;;19.90;86.20;;;;;;4952254;28;20066;-71
2021/09/01 09:15:40;;;;;;;6.78;2.30;;;20.00;85.00;;;;;;4952395;29;20027;-70
2021/09/01 09:18:25;;;;;;;7.32;1.52;;;20.00;84.30;;;;;;4957794;28;20035;-70
2021/09/01 09:21:15;;;;;;;5.80;1.58;;;20.00;83.70;;;;;;4953214;29;20485;-71
2021/09/01 09:23:41;;;;;;;8.35;1.40;;;20.00;84.00;;;;;;4952819;28;20046;-71
2021/09/01 09:26:23;;;;;;;6.05;1.45;;;20.00;84.40;;;;;;4952209;28;20031;-69
2021/09/01 09:29:15;;;;;;;8.50;1.60;;;20.00;83.10;;;;;;4951438;29;20034;-71
2021/09/01 09:31:43;;;;;;;12.10;1.90;;;20.00;82.80;;;;;;4950529;28;20035;-71
2021/09/01 09:34:11;;;;;;;7.47;1.30;;;20.00;83.40;;;;;;4948596;29;20027;-71
2021/09/01 09:36:38;;;;;;;9.18;1.48;;;20.00;82.70;;;;;;4953188;29;20042;-70
2021/09/01 09:39:05;;;;;;;7.78;1.77;;;19.90;82.50;;;;;;4952001;29;20035;-70
2021/09/01 09:41:31;;;;;;;7.35;1.30;;;20.00;83.10;;;;;;4949063;29;20042;-70
2021/09/01 09:44:04;;;;;;;7.95;1.75;;;20.00;82.60;;;;;;4952391;28;20034;-70
2021/09/01 09:46:31;;;;;;;8.93;1.83;;;20.10;82.50;;;;;;4952574;28;20035;-71
2021/09/01 09:49:06;;;;;;;6.72;1.23;;;20.10;82.40;;;;;;4951628;28;20031;-71
2021/09/01 09:51:38;;;;;;;6.13;2.03;;;20.10;82.10;;;;;;4955768;28;20023;-71
2021/09/01 09:54:15;;;;;;;9.18;1.27;;;20.00;82.20;;;;;;4948793;28;20023;-71
2021/09/01 09:56:42;;;;;;;8.77;1.73;;;20.10;82.20;;;;;;4948734;28;20102;-71
2021/09/01 09:59:12;;;;;;;7.40;1.92;;;20.10;81.90;;;;;;4940932;29;20046;-71
2021/09/01 10:01:38;;;;;;;6.32;1.73;;;20.10;80.90;;;;;;4951554;29;20039;-71
2021/09/01 10:04:05;;;;;;;8.57;1.88;;;20.00;81.70;;;;;;4950514;28;20493;-70
2021/09/01 10:06:30;;;;;;;10.90;1.42;;;20.10;81.70;;;;;;4949943;28;20034;-70
2021/09/01 10:08:57;;;;;;;8.10;1.40;;;20.20;81.80;;;;;;4952590;28;20035;-70
2021/09/01 10:11:23;;;;;;;6.88;1.23;;;20.20;81.90;;;;;;4951632;28;20038;-70
2021/09/01 10:13:52;;;;;;;12.20;1.75;;;20.20;81.30;;;;;;4942164;28;20023;-69
2021/09/01 10:16:20;;;;;;;10.25;1.40;;;20.20;80.40;;;;;;4952104;28;20039;-71
2021/09/01 10:19:06;;;;;;;9.32;1.58;;;20.20;80.30;;;;;;4934321;29;20026;-71
2021/09/01 10:21:34;;;;;;;7.63;1.67;;;20.30;81.30;;;;;;4935276;28;20434;-70
2021/09/01 10:24:28;;;;;;;7.18;1.40;;;20.40;81.50;;;;;;4949231;29;20397;-70
2021/09/01 10:27:03;;;;;;;5.80;1.30;;;20.50;80.90;;;;;;4948565;29;20038;-71
2021/09/01 10:29:48;;;;;;;6.88;1.40;;;20.50;80.50;;;;;;4934263;29;20028;-71
2021/09/01 10:32:27;;;;;;;7.60;1.90;;;20.50;79.70;;;;;;4966403;28;20152;-70
2021/09/01 10:35:15;;;;;;;6.57;1.50;;;20.60;79.40;;;;;;4934251;29;20019;-70
2021/09/01 10:37:44;;;;;;;5.85;1.08;;;20.70;79.90;;;;;;4941711;28;20134;-70
2021/09/01 10:40:25;;;;;;;5.88;1.60;;;20.90;79.70;;;;;;4952826;29;20389;-71
2021/09/01 10:42:52;;;;;;;8.10;1.83;;;21.00;79.50;;;;;;4951538;29;20035;-72
2021/09/01 10:45:21;;;;;;;6.47;1.55;;;21.10;78.50;;;;;;4950112;29;20055;-70
2021/09/01 10:47:49;;;;;;;6.13;1.60;;;21.20;78.30;;;;;;4933782;29;20047;-70
2021/09/01 10:50:28;;;;;;;7.82;2.05;;;21.30;77.40;;;;;;4943647;29;20024;-70
2021/09/01 10:53:23;;;;;;;8.38;1.58;;;21.40;77.10;;;;;;4955242;29;20047;-71
2021/09/01 10:55:59;;;;;;;5.15;1.48;;;21.60;77.10;;;;;;4970925;28;20058;-71
2021/09/01 10:58:41;;;;;;;7.07;1.65;;;21.90;75.90;;;;;;4954347;29;20367;-71
2021/09/01 11:01:09;;;;;;;7.65;1.77;;;21.80;75.00;;;;;;4954833;28;20054;-70
2021/09/01 11:04:04;;;;;;;9.02;1.48;;;21.80;75.20;;;;;;4954258;28;20053;-71
2021/09/01 11:06:37;;;;;;;8.43;1.67;;;21.70;74.80;;;;;;4941722;28;20034;-69
2021/09/01 11:09:10;;;;;;;8.50;1.40;;;21.60;75.00;;;;;;4956068;28;20062;-70
2021/09/01 11:11:43;;;;;;;10.98;1.67;;;21.60;75.30;;;;;;4961062;28;20050;-72
2021/09/01 11:14:12;;;;;;;6.18;1.65;;;21.60;75.70;;;;;;4973329;28;20408;-71
2021/09/01 11:16:38;;;;;;;7.40;1.67;;;21.50;74.70;;;;;;4960647;28;20031;-71
2021/09/01 11:19:09;;;;;;;9.77;1.77;;;21.30;75.20;;;;;;4954991;28;20114;-71
2021/09/01 11:21:43;;;;;;;8.38;1.92;;;21.20;75.30;;;;;;4941469;28;20118;-71
2021/09/01 11:24:10;;;;;;;7.70;1.90;;;21.20;75.60;;;;;;4936397;29;20515;-71
2021/09/01 11:26:36;;;;;;;8.73;2.03;;;21.20;76.50;;;;;;4941843;29;20058;-71
2021/09/01 11:29:05;;;;;;;8.85;1.77;;;21.20;76.70;;;;;;4954647;28;20027;-71
2021/09/01 11:31:32;;;;;;;6.95;1.65;;;21.30;76.70;;;;;;4955498;28;20065;-71
2021/09/01 11:33:58;;;;;;;6.90;1.77;;;21.30;76.50;;;;;;4960090;28;20031;-71
2021/09/01 11:36:29;;;;;;;9.50;1.30;;;21.30;75.70;;;;;;4970581;28;20034;-71
2021/09/01 11:38:57;;;;;;;8.98;1.48;;;21.20;76.00;;;;;;4955713;28;20114;-71
2021/09/01 11:41:24;;;;;;;9.90;2.03;;;21.10;76.10;;;;;;4955566;29;20027;-71
2021/09/01 11:44:04;;;;;;;8.98;2.67;;;21.10;76.40;;;;;;4955518;29;20139;-71
2021/09/01 11:46:35;;;;;;;7.63;1.85;;;21.10;76.90;;;;;;4954923;29;20035;-71
2021/09/01 11:49:04;;;;;;;8.95;2.28;;;21.00;77.20;;;;;;4954702;29;20037;-71
2021/09/01 11:51:30;;;;;;;9.38;2.03;;;21.00;77.50;;;;;;4954110;29;20042;-71
2021/09/01 11:53:57;;;;;;;10.45;1.77;;;20.90;77.70;;;;;;4955029;28;20426;-71
2021/09/01 11:56:24;;;;;;;8.05;1.83;;;20.90;78.10;;;;;;4958819;28;20027;-71
2021/09/01 11:58:56;;;;;;;10.82;2.35;;;21.00;78.50;;;;;;4953546;28;20129;-69
2021/09/01 12:01:22;;;;;;;13.15;3.33;;;21.10;77.90;;;;;;4949391;28;20460;-69
2021/09/01 12:03:48;;;;;;;8.68;1.90;;;21.00;77.30;;;;;;4957566;28;20053;-69
2021/09/01 12:06:13;;;;;;;8.77;1.55;;;20.90;78.40;;;;;;4946042;28;20031;-70
2021/09/01 12:08:48;;;;;;;5.40;2.00;;;21.00;77.90;;;;;;4953805;28;20031;-70
2021/09/01 12:11:14;;;;;;;6.72;1.50;;;21.20;77.90;;;;;;4959226;28;20363;-70
2021/09/01 12:13:45;;;;;;;7.30;1.77;;;21.30;76.90;;;;;;4953285;28;20043;-70
2021/09/01 12:16:12;;;;;;;6.72;1.60;;;21.40;77.20;;;;;;4962192;28;20052;-71
2021/09/01 12:19:09;;;;;;;7.63;1.80;;;21.50;76.60;;;;;;4953401;28;20588;-71
2021/09/01 12:22:02;;;;;;;7.63;1.73;;;21.70;75.60;;;;;;4955500;28;20054;-71
2021/09/01 12:24:34;;;;;;;7.35;1.40;;;21.70;74.60;;;;;;4951785;29;20067;-71
2021/09/01 12:27:07;;;;;;;7.13;1.83;;;21.80;74.60;;;;;;4953375;29;20500;-74
2021/09/01 12:29:39;;;;;;;7.53;1.92;;;21.90;74.00;;;;;;4954897;29;20024;-72
2021/09/01 12:32:14;;;;;;;8.13;1.60;;;21.80;72.80;;;;;;4954309;29;20041;-71
2021/09/01 12:34:43;;;;;;;5.03;1.40;;;21.80;73.30;;;;;;4954372;28;20067;-71
2021/09/01 12:37:20;;;;;;;7.13;1.85;;;21.80;72.30;;;;;;4954492;28;20378;-71
2021/09/01 12:39:48;;;;;;;4.63;1.42;;;21.80;72.40;;;;;;4953539;29;20024;-72
2021/09/01 12:42:43;;;;;;;5.95;1.58;;;21.80;72.80;;;;;;4935429;28;20036;-71
2021/09/01 12:45:19;;;;;;;5.47;1.20;;;21.80;72.30;;;;;;4949099;29;20175;-71
2021/09/01 12:47:55;;;;;;;7.57;1.63;;;21.90;72.00;;;;;;4952886;29;20039;-71
2021/09/01 12:50:28;;;;;;;5.47;1.40;;;21.70;73.30;;;;;;4954610;28;20636;-71
2021/09/01 12:52:54;;;;;;;6.47;1.10;;;21.60;72.50;;;;;;4954808;28;20453;-71
2021/09/01 12:55:31;;;;;;;5.78;1.35;;;21.50;72.90;;;;;;4936935;28;20036;-71
2021/09/01 12:57:57;;;;;;;5.60;1.20;;;21.20;73.40;;;;;;4945179;29;20438;-71